SARFSLVR

Guest
Details From SARF - FORMOSA
To SLVR - VIRU VIRU INTL
Flight Number -
Tags generated
Created
Modified
Stats Distance 602 nm / 1,115 km
Max Altitude 33,100 ft / 10,089 m
Waypoints 6
Social Downloads 0
Likes 0
Share VATSIM

Download

Looking for another format? Having issues loading an existing format? Contact us
Advertisement - Login to hide

Notes

Basic altitude profile: - Ascent Rate: 2500ft/min - Ascent Speed: 250kts - Cruise Altitude: 35000ft - Cruise Speed: 420kts - Descent Rate: 1500ft/min - Descent Speed: 250kts Options: - Use NATs: yes - Use PACOTS: yes - Use low airways: yes - Use high airways: no

Route

SARF UKELA A556 PUBIT SLVR

ID Type Via Altitude Latitude Longitude Leg Dist Tot Dist Heading (true) Name
O SARF APT - 0 ft / 0 m -26.21272˚ -58.22811˚ - 0 nm - FORMOSA
UKELA FIX - 33,100 ft / 10,089 m -24.62167˚ -58.14167˚ 95 nm 95 nm 3° / 3° -
MCL NDB A556 (AWY-LO) 24,500 ft / 7,468 m -22.04250˚ -60.61694˚ 206 nm 302 nm 318° / 319° MARISCAL ESTIGARRIBIA NDB
GERNI FIX A556 (AWY-LO) 24,500 ft / 7,468 m -19.91750˚ -61.85000˚ 145 nm 447 nm 331° / 332° -
PUBIT FIX A556 (AWY-LO) 16,800 ft / 5,121 m -18.80327˚ -62.48666˚ 76 nm 523 nm 332° / 332° -
O SLVR APT - 0 ft / 0 m -17.64476˚ -63.13536˚ 78 nm 602 nm 332° / 332° VIRU VIRU INTL

Altitude Profile

Advertisement - Login to hide

Weather


0- 5 10 15 20 25 30 35+ Temperature / ° C

Clouds and Precipitation
Forecast for 2018-05-24 00:00 UTC. Updated 4 hours ago

Ground ~20,000 ft ~40,000 ft Winds

SARF

Details ICAO SARF (FMA)
Name FORMOSA
Region Argentina
Timezone America/Argentina/Cordoba (UTC-3.0)
Stats Elevation 194 ft / 59 m (AMSL)
Location -26.212722° -58.228111°
Runways 1
Magnetic Variation 13.313° W

METAR

SARF 240300Z 20005KT CAVOK 10/09 Q1024

Decode

TAF

TAF SARF 232300Z 2400/2424 16005KT 9999 FEW035 TX20/2418Z TN08/2410Z PROB30 2407/2411 5000 BR NSC

Decode

Departure Runways

ID Width Length Bearing (true) Bearing (mag) Surface Threshold Offset Overrun Length
04 100 ft / 30 m 5,922 ft / 1,805 m 24.88° 38.19° Asphalt 0 ft / 0 m 65 ft / 20 m
22 100 ft / 30 m 5,922 ft / 1,805 m 204.88° 218.19° Asphalt 0 ft / 0 m 65 ft / 20 m

SLVR

Details ICAO SLVR (VVI)
Name VIRU VIRU INTL
Region Bolivia
Timezone America/La_Paz (UTC-4.0)
Stats Elevation 1,225 ft / 373 m (AMSL)
Location -17.644755° -63.135362°
Runways 1
Magnetic Variation 11.976° W

METAR

SLVR 240300Z 20005KT 9999 NSC 16/13 Q1021

Decode

TAF

Not found

Destination Runways

ID Width Length Bearing (true) Bearing (mag) Surface Threshold Offset Overrun Length
16 148 ft / 45 m 11,519 ft / 3,511 m 147.35° 159.33° Concrete 0 ft / 0 m 197 ft / 60 m
34 148 ft / 45 m 11,519 ft / 3,511 m 327.34° 339.32° Concrete 0 ft / 0 m 197 ft / 60 m

Approach Navaids

Runway Type Ident Frequency Range Bearing (true) Bearing (mag) Slope Elevation
34 Localiser VCZ 110.90 MHz 18 nm / 33 km 327.34° 339.32° - 1,224 ft / 373 m (AMSL)
34 Glidescope VCZ 110.90 MHz 10 nm / 19 km 327.34° 339.32° 3.00° 1,224 ft / 373 m (AMSL)